Time;durP1;ratioP1;P1;durP2;ratioP2;P2;SDS_P1;SDS_P2;PMS_P1;PMS_P2;Temp;Humidity;BMP_temperature;BMP_pressure;BME280_temperature;BME280_humidity;BME280_pressure;Samples;Min_cycle;Max_cycle;Signal;HPM_P1;HPM_P2
2023/10/12 00:02:21;;;;;;;6.28;1.90;;;;;;;11.80;64.74;101483.38;5112830;28;20493;-68
2023/10/12 00:04:53;;;;;;;5.70;1.90;;;;;;;11.80;64.27;101496.31;5100716;28;20081;-69
2023/10/12 00:07:33;;;;;;;6.20;2.10;;;;;;;11.57;62.89;101476.19;5113136;28;20044;-65
2023/10/12 00:10:19;;;;;;;5.28;1.92;;;;;;;11.56;62.67;101495.97;5076905;28;20557;-65
2023/10/12 00:12:46;;;;;;;3.53;1.75;;;;;;;11.43;62.02;101485.84;5094317;28;20063;-67
2023/10/12 00:17:51;;;;;;;5.28;2.20;;;;;;;11.32;62.37;101488.78;5113269;28;20035;-65
2023/10/12 00:22:54;;;;;;;6.28;2.10;;;;;;;11.33;62.47;101479.34;5112911;28;20031;-65
2023/10/12 00:25:20;;;;;;;5.00;1.98;;;;;;;11.25;63.36;101475.47;5112262;28;20039;-68
2023/10/12 00:27:47;;;;;;;7.90;2.22;;;;;;;10.97;63.60;101474.06;5112518;28;20031;-64
2023/10/12 00:30:14;;;;;;;8.57;1.83;;;;;;;10.29;65.45;101419.75;5112806;28;20028;-66
2023/10/12 00:32:41;;;;;;;5.20;1.80;;;;;;;10.66;65.63;101469.88;5112576;28;20028;-66
2023/10/12 00:35:10;;;;;;;5.13;1.98;;;;;;;10.65;65.86;101455.19;5112645;28;20036;-65
2023/10/12 00:37:37;;;;;;;7.50;2.47;;;;;;;10.75;66.32;101454.88;5112552;28;20034;-64
2023/10/12 00:40:23;;;;;;;6.82;2.67;;;;;;;10.86;66.19;101457.13;5112040;28;20054;-63
2023/10/12 00:42:56;;;;;;;6.18;1.95;;;;;;;10.69;66.33;101420.97;5112374;28;20043;-64
2023/10/12 00:45:34;;;;;;;4.60;1.95;;;;;;;10.95;66.38;101444.69;5099349;28;20035;-65
2023/10/12 00:48:10;;;;;;;9.07;2.13;;;;;;;10.92;66.32;101454.88;5112368;28;20040;-66
2023/10/12 00:50:36;;;;;;;7.00;1.88;;;;;;;10.88;66.34;101432.25;5112085;28;20031;-65
2023/10/12 00:55:45;;;;;;;5.90;2.10;;;;;;;10.77;63.33;101439.47;5112377;28;20035;-65
2023/10/12 00:58:14;;;;;;;5.32;2.00;;;;;;;10.96;62.71;101455.09;5093541;28;20027;-66
2023/10/12 01:00:45;;;;;;;4.10;1.75;;;;;;;10.95;62.29;101461.09;5111973;28;20172;-65
2023/10/12 01:03:31;;;;;;;9.30;3.85;;;;;;;10.90;61.87;101449.59;5111526;28;20137;-67
2023/10/12 01:08:33;;;;;;;5.82;1.85;;;;;;;10.81;62.79;101444.84;5112087;28;20047;-64
2023/10/12 01:11:04;;;;;;;7.78;2.30;;;;;;;10.64;63.95;101450.84;5074953;28;20555;-65
2023/10/12 01:13:33;;;;;;;7.85;2.10;;;;;;;10.28;65.49;101451.53;5112117;28;20043;-65
2023/10/12 01:16:03;;;;;;;5.38;1.95;;;;;;;10.10;66.35;101448.81;5111698;28;20035;-65
2023/10/12 01:18:28;;;;;;;8.45;2.35;;;;;;;10.13;66.78;101443.84;5111733;28;20135;-65
2023/10/12 01:20:54;;;;;;;10.02;2.08;;;;;;;10.30;66.80;101442.16;5111685;28;20173;-69
2023/10/12 01:23:19;;;;;;;7.32;2.17;;;;;;;10.29;66.85;101426.59;5111910;28;20481;-65
2023/10/12 01:25:47;;;;;;;7.88;3.10;;;;;;;10.41;72.08;101436.72;5110921;28;20040;-65
2023/10/12 01:28:15;;;;;;;5.53;2.17;;;;;;;10.46;72.91;101437.84;5111409;28;20028;-65
2023/10/12 01:30:43;;;;;;;5.13;2.30;;;;;;;10.41;69.28;101427.28;5111743;28;20034;-69
2023/10/12 01:33:09;;;;;;;3.67;2.05;;;;;;;10.29;69.95;101440.41;5111377;28;20371;-68
2023/10/12 01:35:38;;;;;;;6.07;2.67;;;;;;;9.94;70.33;101399.78;5111372;28;20037;-66
2023/10/12 01:38:05;;;;;;;4.63;2.03;;;;;;;10.19;70.45;101433.84;5111401;28;20039;-67
2023/10/12 01:43:12;;;;;;;5.20;2.10;;;;;;;10.28;70.42;101445.47;5108358;28;20418;-66
2023/10/12 01:45:41;;;;;;;8.10;2.80;;;;;;;10.17;70.29;101430.28;5111262;28;20032;-66
2023/10/12 01:48:12;;;;;;;8.93;2.33;;;;;;;10.22;71.03;101427.97;5110909;28;20035;-64
2023/10/12 01:50:38;;;;;;;7.57;2.80;;;;;;;10.12;71.27;101431.75;5110633;28;20031;-64
2023/10/12 01:53:22;;;;;;;4.25;2.50;;;;;;;10.02;71.85;101427.75;5110875;28;20039;-66
2023/10/12 01:55:53;;;;;;;6.57;2.70;;;;;;;9.95;71.99;101419.63;5111149;28;20039;-65
2023/10/12 01:58:20;;;;;;;8.20;2.55;;;;;;;9.75;71.40;101377.25;5111104;28;20055;-65
2023/10/12 02:00:52;;;;;;;5.15;2.50;;;;;;;9.98;72.35;101427.50;5110551;28;20547;-65
2023/10/12 02:03:31;;;;;;;10.45;2.95;;;;;;;9.93;72.93;101426.38;5092486;28;20038;-65
2023/10/12 02:06:06;;;;;;;4.60;1.80;;;;;;;9.99;69.00;101429.28;5110971;28;20088;-65
2023/10/12 02:08:59;;;;;;;6.35;2.00;;;;;;;10.04;67.21;101425.25;5110983;28;20417;-65
2023/10/12 02:13:48;;;;;;;7.03;2.00;;;;;;;10.08;67.35;101431.47;5110314;28;20028;-64
2023/10/12 02:16:23;;;;;;;6.65;2.38;;;;;;;9.97;67.76;101420.56;5110398;28;20413;-65
2023/10/12 02:18:50;;;;;;;8.48;2.10;;;;;;;9.95;69.71;101427.34;5110656;28;20092;-65
2023/10/12 02:21:20;;;;;;;4.53;1.75;;;;;;;9.60;68.25;101364.41;5110643;28;20032;-67
2023/10/12 02:26:52;;;;;;;7.00;2.50;;;;;;;9.96;66.47;101423.97;5110646;28;20138;-67
2023/10/12 02:29:18;;;;;;;;;;;;;;;10.01;66.27;101430.28;5111369;28;20682;-66
2023/10/12 02:34:25;;;;;;;9.25;3.33;;;;;;;9.74;67.80;101427.94;5110875;28;20036;-65
2023/10/12 02:39:40;;;;;;;5.53;1.90;;;;;;;9.44;68.92;101430.56;5110415;28;20052;-65
2023/10/12 02:42:17;;;;;;;6.55;2.10;;;;;;;9.21;67.66;101388.91;5110312;28;20512;-64
2023/10/12 02:47:18;;;;;;;9.20;2.40;;;;;;;9.55;66.66;101421.75;5110348;28;20118;-68
2023/10/12 02:49:45;;;;;;;7.53;2.10;;;;;;;9.57;66.81;101426.09;5110375;28;20050;-64
2023/10/12 02:52:15;;;;;;;4.90;2.05;;;;;;;9.47;67.58;101425.59;5110491;28;20040;-65
2023/10/12 02:54:54;;;;;;;6.10;2.50;;;;;;;9.15;66.72;101387.69;5110466;28;20038;-65
2023/10/12 02:57:25;;;;;;;7.80;2.42;;;;;;;9.39;66.67;101419.09;5110311;28;20107;-66
2023/10/12 03:00:18;;;;;;;8.90;2.35;;;;;;;9.09;67.76;101374.44;5110470;28;20059;-68
2023/10/12 03:02:44;;;;;;;5.28;1.90;;;;;;;9.19;68.27;101431.72;5109889;28;20513;-67
2023/10/12 03:05:17;;;;;;;10.15;2.13;;;;;;;8.71;69.06;101372.28;5110550;28;20551;-64
2023/10/12 03:07:44;;;;;;;6.55;2.40;;;;;;;9.06;69.81;101426.69;5109930;28;20047;-65
2023/10/12 03:10:26;;;;;;;11.10;2.22;;;;;;;9.16;69.46;101428.97;5110286;28;20055;-68
2023/10/12 03:12:55;;;;;;;6.72;2.80;;;;;;;8.98;67.58;101381.53;5097778;28;20031;-66
2023/10/12 03:15:44;;;;;;;3.55;1.80;;;;;;;8.86;66.51;101374.88;5106688;28;20128;-66
2023/10/12 03:18:13;;;;;;;3.50;1.87;;;;;;;8.82;66.70;101395.19;5109759;28;20042;-65
2023/10/12 03:20:39;;;;;;;4.93;1.63;;;;;;;8.92;66.91;101425.84;5092102;28;20450;-66
2023/10/12 03:23:16;;;;;;;5.90;2.10;;;;;;;8.83;66.89;101413.31;5091834;28;20365;-66
2023/10/12 03:25:51;;;;;;;4.93;2.00;;;;;;;8.87;67.12;101429.84;5079328;28;20051;-64
2023/10/12 03:28:44;;;;;;;6.82;2.20;;;;;;;8.86;67.50;101431.53;5112875;28;20421;-65
2023/10/12 03:34:05;;;;;;;7.10;1.98;;;;;;;8.78;68.78;101416.44;5038560;28;20095;-67
2023/10/12 03:36:36;;;;;;;6.22;2.30;;;;;;;8.62;69.44;101420.63;5050114;28;20049;-66
2023/10/12 03:52:27;;;;;;;10.40;3.17;;;;;;;8.36;74.21;101421.59;5030062;28;20080;-65
2023/10/12 03:55:19;;;;;;;11.90;2.40;;;;;;;8.46;73.02;101424.00;5030025;28;20033;-65
2023/10/12 03:58:00;;;;;;;10.88;2.55;;;;;;;8.55;70.74;101429.69;5027432;28;20036;-64
2023/10/12 04:00:34;;;;;;;8.05;2.45;;;;;;;8.58;68.76;101437.63;5030113;28;20094;-67
2023/10/12 04:03:05;;;;;;;5.68;2.30;;;;;;;8.24;69.61;101430.34;5030003;28;20073;-64
2023/10/12 04:18:32;;;;;;;5.80;2.10;;;;;;;8.11;72.19;101417.50;5030551;28;20037;-65
2023/10/12 04:20:58;;;;;;;4.05;2.05;;;;;;;8.17;71.68;101417.03;5049605;28;20068;-64
2023/10/12 04:28:57;;;;;;;9.30;3.00;;;;;;;8.22;69.99;101423.34;5005095;28;20495;-65
2023/10/12 04:31:49;;;;;;;8.27;2.65;;;;;;;8.15;70.61;101434.94;5009826;28;20067;-64
2023/10/12 04:34:26;;;;;;;8.85;2.63;;;;;;;8.14;71.14;101435.72;5009481;28;20045;-64
2023/10/12 04:37:11;;;;;;;7.88;2.25;;;;;;;8.09;71.42;101420.00;5025810;28;20052;-64
2023/10/12 04:39:37;;;;;;;8.27;2.47;;;;;;;8.10;71.05;101428.63;5028968;28;20169;-64
2023/10/12 04:47:05;;;;;;;11.18;2.72;;;;;;;7.81;71.59;101425.09;5028833;28;20124;-66
2023/10/12 04:57:34;;;;;;;5.28;2.17;;;;;;;7.55;73.22;101447.47;5029533;28;20132;-64
2023/10/12 05:00:18;;;;;;;5.85;2.58;;;;;;;7.51;73.93;101450.59;5029368;28;20034;-64
2023/10/12 05:07:54;;;;;;;6.68;2.97;;;;;;;7.68;76.53;101453.38;5112134;28;20044;-64
2023/10/12 05:13:06;;;;;;;10.38;2.60;;;;;;;7.51;78.22;101373.50;5111853;28;20032;-64
2023/10/12 05:15:46;;;;;;;5.38;2.95;;;;;;;7.81;79.11;101419.94;5111750;28;20040;-65
2023/10/12 05:18:17;;;;;;;5.32;2.80;;;;;;;8.10;78.45;101450.06;5099565;28;20520;-63
2023/10/12 05:20:42;;;;;;;5.00;2.33;;;;;;;8.20;77.86;101456.69;5111845;28;20035;-67
2023/10/12 05:23:09;;;;;;;6.47;3.22;;;;;;;8.23;76.82;101466.28;5111913;28;20058;-67
2023/10/12 05:25:53;;;;;;;4.38;2.40;;;;;;;8.16;76.20;101454.72;5111534;28;20522;-64
2023/10/12 05:28:27;;;;;;;5.28;2.30;;;;;;;7.99;75.60;101451.09;5111601;28;20091;-64
2023/10/12 05:30:59;;;;;;;6.18;2.28;;;;;;;8.01;75.86;101464.03;5111826;28;20039;-64
2023/10/12 05:36:00;;;;;;;7.68;2.53;;;;;;;8.17;75.81;101461.63;5111467;28;20039;-64
2023/10/12 05:38:34;;;;;;;4.13;2.13;;;;;;;8.25;75.69;101462.13;5085965;28;20105;-67
2023/10/12 05:41:00;;;;;;;8.27;2.78;;;;;;;8.22;75.26;101434.53;5106590;28;20074;-69
2023/10/12 05:43:29;;;;;;;6.78;2.60;;;;;;;8.37;76.03;101460.31;5095278;28;20052;-63
2023/10/12 05:45:55;;;;;;;5.07;2.58;;;;;;;8.52;76.61;101467.22;5108337;28;20071;-66
2023/10/12 05:48:20;;;;;;;8.25;3.15;;;;;;;8.65;76.77;101464.59;5110999;28;20094;-63
2023/10/12 05:50:51;;;;;;;6.00;2.50;;;;;;;8.54;76.78;101427.03;5110666;28;20189;-63
2023/10/12 05:53:17;;;;;;;10.55;2.65;;;;;;;8.95;76.45;101468.91;5110742;28;20485;-67
2023/10/12 05:55:44;;;;;;;6.28;2.92;;;;;;;9.13;76.15;101467.44;5100119;28;20085;-64
2023/10/12 05:58:11;;;;;;;6.57;2.72;;;;;;;9.19;76.20;101467.78;5098773;28;20413;-68
2023/10/12 06:00:44;;;;;;;5.75;2.97;;;;;;;9.37;76.33;101473.16;5100011;28;20035;-64
2023/10/12 06:03:16;;;;;;;8.00;3.17;;;;;;;9.19;76.28;101418.84;5110190;28;20478;-68
2023/10/12 06:05:44;;;;;;;6.75;2.97;;;;;;;9.50;76.61;101468.69;5109426;28;20042;-64
2023/10/12 06:08:12;;;;;;;9.75;2.60;;;;;;;9.54;76.95;101461.22;5108771;28;20039;-64
2023/10/12 06:10:41;;;;;;;8.77;2.83;;;;;;;9.80;76.13;101466.09;5107674;28;20051;-65
2023/10/12 06:13:13;;;;;;;8.52;2.50;;;;;;;10.02;75.63;101471.63;5108382;28;20505;-65
2023/10/12 06:15:42;;;;;;;4.22;2.40;;;;;;;9.97;75.19;101430.88;5068835;28;20032;-67
2023/10/12 06:18:20;;;;;;;8.05;3.05;;;;;;;10.32;74.86;101460.31;5108004;28;20027;-64
2023/10/12 06:20:47;;;;;;;6.63;2.70;;;;;;;10.44;74.51;101466.19;5110871;28;20513;-65
2023/10/12 06:23:16;;;;;;;5.45;2.70;;;;;;;10.23;75.48;101460.72;5111358;28;20039;-65
2023/10/12 06:25:44;;;;;;;6.78;2.70;;;;;;;10.32;75.59;101450.00;5107660;28;20032;-66
2023/10/12 06:28:18;;;;;;;5.57;2.90;;;;;;;10.38;75.32;101470.09;5098746;28;20036;-68
2023/10/12 06:30:44;;;;;;;5.38;2.42;;;;;;;10.65;74.82;101468.09;5055792;28;20035;-68
2023/10/12 06:33:14;;;;;;;8.27;3.10;;;;;;;10.83;73.96;101469.06;5102677;28;20067;-68
2023/10/12 06:35:51;;;;;;;;;;;;;;;11.05;73.77;101469.28;5110565;28;20042;-66
2023/10/12 06:38:22;;;;;;;6.18;2.50;;;;;;;11.01;72.61;101429.50;5109872;28;19918;-66
2023/10/12 06:40:48;;;;;;;7.75;2.50;;;;;;;11.31;72.16;101466.34;5110624;28;20031;-70
2023/10/12 06:45:49;;;;;;;6.53;2.50;;;;;;;11.60;71.66;101458.22;5054016;28;20552;-68
2023/10/12 06:51:03;;;;;;;8.20;2.67;;;;;;;11.52;71.90;101437.16;5099394;28;20066;-69
2023/10/12 06:53:36;;;;;;;9.25;2.92;;;;;;;11.75;72.02;101453.81;5110280;28;20093;-68
2023/10/12 07:04:15;;;;;;;5.95;2.92;;;;;;;12.37;70.81;101430.78;5096667;28;20498;-70
2023/10/12 07:09:29;;;;;;;7.43;2.50;;;;;;;12.56;70.33;101436.78;5101830;28;20048;-69
2023/10/12 07:11:55;;;;;;;5.60;2.45;;;;;;;12.54;70.22;101425.50;5077659;28;20040;-71
2023/10/12 07:14:31;;;;;;;5.05;2.35;;;;;;;12.74;69.71;101423.78;5106063;28;20701;-72
2023/10/12 07:16:57;;;;;;;6.53;2.67;;;;;;;12.97;69.21;101423.88;5110990;28;20069;-67
2023/10/12 07:19:24;;;;;;;11.95;3.30;;;;;;;13.13;69.49;101435.78;5114062;28;20035;-68
2023/10/12 07:21:55;;;;;;;6.25;2.70;;;;;;;13.32;68.54;101438.31;5109631;28;20035;-69
2023/10/12 07:24:23;;;;;;;6.22;2.63;;;;;;;13.50;68.08;101427.84;5104852;28;20043;-69
2023/10/12 07:26:50;;;;;;;5.72;2.75;;;;;;;13.69;67.65;101433.75;5113673;28;20500;-68
2023/10/12 07:29:19;;;;;;;4.85;2.25;;;;;;;13.70;68.04;101427.75;5095655;28;20382;-67
2023/10/12 07:31:48;;;;;;;5.32;2.60;;;;;;;13.79;69.63;101424.63;5113863;28;20085;-68
2023/10/12 07:34:19;;;;;;;7.23;2.77;;;;;;;13.73;69.16;101430.44;5113913;28;20031;-68
2023/10/12 07:36:52;;;;;;;5.82;2.50;;;;;;;13.79;69.45;101419.44;5113109;28;20278;-68
2023/10/12 07:42:26;;;;;;;6.38;2.35;;;;;;;14.33;68.57;101413.66;5102909;28;20562;-70
2023/10/12 07:44:54;;;;;;;5.65;2.10;;;;;;;13.96;69.31;101376.84;5049698;28;20037;-66
2023/10/12 07:47:31;;;;;;;7.53;2.55;;;;;;;14.28;68.95;101416.13;5037615;28;20029;-68
2023/10/12 07:49:57;;;;;;;8.23;2.67;;;;;;;14.52;68.21;101416.13;5030520;28;20613;-67
2023/10/12 07:52:46;;;;;;;6.70;2.90;;;;;;;14.77;67.87;101418.75;5043572;28;20067;-68
2023/10/12 07:55:12;;;;;;;7.82;3.20;;;;;;;14.84;67.19;101408.63;5040969;28;20139;-68
2023/10/12 07:57:39;;;;;;;7.18;2.92;;;;;;;15.11;66.29;101402.56;5045683;28;20651;-69
2023/10/12 08:24:09;;;;;;;4.38;2.28;;;;;;;16.60;62.91;101387.09;5079738;28;20040;-68
2023/10/12 08:31:48;;;;;;;5.53;2.15;;;;;;;17.16;60.14;101385.94;5092245;28;20036;-71
2023/10/12 08:39:38;;;;;;;5.32;2.70;;;;;;;17.50;58.87;101380.66;5091996;28;20024;-68
2023/10/12 08:44:53;;;;;;;6.97;2.45;;;;;;;17.43;58.72;101377.00;5092016;28;20115;-68
2023/10/12 08:52:53;;;;;;;5.10;1.70;;;;;;;17.58;57.98;101329.47;5028911;28;20076;-67
2023/10/12 08:55:25;;;;;;;7.13;2.80;;;;;;;17.91;57.36;101355.44;5029119;28;20160;-70
2023/10/12 08:58:14;;;;;;;5.45;2.53;;;;;;;18.12;56.94;101359.38;5028720;28;20678;-68
2023/10/12 09:03:27;;;;;;;7.95;2.25;;;;;;;18.42;55.39;101355.59;5029302;28;20520;-68
2023/10/12 09:05:59;;;;;;;4.80;1.83;;;;;;;18.51;55.73;101341.81;5029100;28;20577;-68
2023/10/12 09:11:13;;;;;;;7.07;2.17;;;;;;;18.68;53.85;101355.16;5020089;28;20136;-68
2023/10/12 09:13:51;;;;;;;4.88;2.30;;;;;;;18.67;53.66;101346.44;5028974;28;20116;-71
2023/10/12 09:16:17;;;;;;;4.35;2.00;;;;;;;18.27;54.20;101275.16;5028601;28;20033;-69
2023/10/12 09:18:46;;;;;;;6.88;2.00;;;;;;;18.45;53.90;101316.41;4995312;28;20037;-68
2023/10/12 09:26:37;;;;;;;4.05;1.83;;;;;;;18.28;54.45;101313.50;5046816;28;20480;-70
2023/10/12 09:36:53;;;;;;;9.15;2.97;;;;;;;18.80;52.49;101284.75;5070956;28;20039;-68
2023/10/12 09:39:28;;;;;;;9.10;3.65;;;;;;;18.86;52.47;101283.97;5070622;28;20040;-71
2023/10/12 09:42:22;;;;;;;5.03;2.40;;;;;;;18.88;50.97;101270.06;5071200;28;20059;-68
2023/10/12 09:44:40;;;;;;;7.50;2.33;;;;;;;19.00;50.75;101271.16;5070485;28;20033;-68
2023/10/12 09:47:15;;;;;;;8.07;2.63;;;;;;;19.15;50.38;101273.09;5064669;28;20047;-69
2023/10/12 09:49:53;;;;;;;6.43;2.30;;;;;;;19.12;49.33;101223.34;5070758;28;20028;-69
2023/10/12 09:52:23;;;;;;;15.80;2.53;;;;;;;19.45;48.83;101256.97;5070630;28;20039;-73
2023/10/12 09:55:00;;;;;;;7.65;2.17;;;;;;;19.47;47.41;101249.13;5080863;28;20474;-68
2023/10/12 09:57:26;;;;;;;7.22;1.80;;;;;;;19.58;47.33;101247.50;5079134;28;20403;-67
2023/10/12 10:02:55;;;;;;;9.18;2.20;;;;;;;19.65;46.90;101201.28;5047949;28;20088;-69
2023/10/12 10:07:58;;;;;;;7.28;2.25;;;;;;;20.06;46.51;101228.84;5047311;28;20503;-68
2023/10/12 10:10:32;;;;;;;6.25;1.77;;;;;;;20.14;46.29;101230.66;5047678;28;20079;-69
2023/10/12 10:13:04;;;;;;;5.95;1.88;;;;;;;20.31;45.76;101222.97;5046818;28;20067;-69
2023/10/12 10:15:44;;;;;;;7.72;2.20;;;;;;;20.49;46.68;101211.75;5047121;28;20040;-69
2023/10/12 10:18:16;;;;;;;5.40;2.40;;;;;;;20.39;46.12;101203.78;5039801;28;20041;-69
2023/10/12 10:20:58;;;;;;;5.68;2.00;;;;;;;20.62;46.15;101198.72;5047574;28;20124;-68
2023/10/12 10:23:28;;;;;;;5.63;2.00;;;;;;;20.91;44.40;101198.06;5043718;28;20077;-72
2023/10/12 10:26:30;;;;;;;5.32;2.30;;;;;;;20.71;44.14;101130.63;5046824;28;20059;-70
2023/10/12 10:29:17;;;;;;;4.90;2.88;;;;;;;21.06;43.70;101150.91;5031870;28;20036;-73
2023/10/12 10:31:44;;;;;;;6.13;2.28;;;;;;;21.47;42.61;101193.94;5028216;28;20038;-72
2023/10/12 10:34:12;;;;;;;3.15;1.80;;;;;;;21.59;42.17;101182.63;5037748;28;20494;-70
2023/10/12 10:36:38;;;;;;;7.07;2.10;;;;;;;21.71;41.73;101182.66;5046273;28;20084;-69
2023/10/12 10:39:30;;;;;;;6.20;2.70;;;;;;;21.69;41.29;101171.28;5050351;28;20040;-72
2023/10/12 10:42:00;;;;;;;6.25;2.40;;;;;;;21.38;41.19;101175.53;5081285;28;20040;-70
2023/10/12 10:44:26;;;;;;;9.68;3.20;;;;;;;21.17;41.65;101170.22;5082296;28;20509;-72
2023/10/12 10:47:00;;;;;;;8.00;2.60;;;;;;;21.24;40.33;101167.59;5090553;28;20032;-71
2023/10/12 10:49:33;;;;;;;13.25;3.72;;;;;;;21.29;39.99;101152.75;5090714;28;20036;-69
2023/10/12 10:54:39;;;;;;;8.45;2.45;;;;;;;21.61;39.31;101136.22;5090687;28;20119;-70
2023/10/12 10:57:15;;;;;;;6.28;1.90;;;;;;;21.92;36.70;101137.13;5090640;28;20512;-73
2023/10/12 10:59:44;;;;;;;3.25;1.70;;;;;;;21.89;36.41;101144.16;5090863;28;20039;-71
2023/10/12 11:02:12;;;;;;;6.05;2.05;;;;;;;21.85;34.83;101131.88;5055500;28;20033;-71
2023/10/12 11:07:18;;;;;;;3.78;1.77;;;;;;;21.84;35.87;101124.88;5090483;28;20031;-69
2023/10/12 11:12:25;;;;;;;3.33;1.67;;;;;;;21.99;35.42;101116.97;5111037;28;20043;-72
2023/10/12 11:14:58;;;;;;;3.13;1.70;;;;;;;21.98;35.28;101113.47;5110539;28;20042;-69
2023/10/12 11:17:35;;;;;;;6.30;1.80;;;;;;;21.95;35.53;101097.69;5110555;28;20036;-69
2023/10/12 11:20:07;;;;;;;4.60;1.98;;;;;;;22.14;35.92;101101.22;5110640;28;20047;-70
2023/10/12 11:22:33;;;;;;;8.20;2.45;;;;;;;22.19;34.78;101072.25;5110753;28;20478;-69
2023/10/12 11:25:01;;;;;;;5.88;2.28;;;;;;;22.56;34.52;101105.56;5091315;28;20036;-72
2023/10/12 11:27:34;;;;;;;4.32;2.17;;;;;;;22.70;35.01;101095.84;5090368;28;20036;-71
2023/10/12 11:30:00;;;;;;;6.40;1.95;;;;;;;22.76;33.92;101090.56;5090044;28;20421;-71
2023/10/12 11:32:28;;;;;;;3.78;1.85;;;;;;;22.86;35.65;101080.00;5089712;28;20141;-70
2023/10/12 11:34:59;;;;;;;6.97;2.03;;;;;;;22.93;32.49;101087.00;5102209;28;20032;-69
2023/10/12 11:37:27;;;;;;;5.45;1.90;;;;;;;22.85;33.96;101080.88;5107522;28;20432;-69
2023/10/12 11:39:54;;;;;;;4.03;1.70;;;;;;;22.96;33.50;101081.72;5109889;28;20027;-69
2023/10/12 11:42:20;;;;;;;4.50;2.10;;;;;;;22.96;33.43;101081.72;5109620;28;20027;-69
2023/10/12 11:44:47;;;;;;;4.00;1.80;;;;;;;22.98;33.84;101065.91;5109786;28;20100;-69
2023/10/12 11:47:23;;;;;;;5.03;1.95;;;;;;;23.19;33.56;101072.84;5109782;28;20063;-69
2023/10/12 11:49:57;;;;;;;5.13;2.03;;;;;;;23.10;34.18;101032.50;5108902;28;20050;-69
2023/10/12 11:52:33;;;;;;;4.78;2.08;;;;;;;23.37;33.82;101061.34;5079521;28;20067;-69
2023/10/12 11:55:18;;;;;;;5.00;1.88;;;;;;;23.31;34.25;101030.63;5110198;28;20032;-71
2023/10/12 11:57:48;;;;;;;7.03;2.13;;;;;;;23.34;32.46;101019.19;5108870;28;20028;-70
2023/10/12 12:03:02;;;;;;;3.92;1.90;;;;;;;23.69;32.84;101047.03;5113673;28;20035;-69
2023/10/12 12:05:32;;;;;;;4.00;1.60;;;;;;;23.71;30.75;101040.88;5113120;28;20040;-70
2023/10/12 12:08:05;;;;;;;8.48;1.75;;;;;;;23.59;28.60;101040.97;5112781;28;20043;-70
2023/10/12 12:10:38;;;;;;;7.45;1.80;;;;;;;23.57;31.26;101033.06;5113018;28;20120;-69
2023/10/12 12:13:09;;;;;;;3.65;1.65;;;;;;;23.71;31.28;101030.34;5113679;28;20027;-67
2023/10/12 12:15:44;;;;;;;3.58;1.73;;;;;;;23.73;31.48;101031.19;5113563;28;20039;-68
2023/10/12 12:18:19;;;;;;;5.65;1.88;;;;;;;23.76;30.65;101025.00;5109993;28;20063;-69
2023/10/12 12:20:52;;;;;;;5.57;1.90;;;;;;;23.69;32.03;101021.56;5092119;28;20066;-70
2023/10/12 12:23:19;;;;;;;3.67;2.00;;;;;;;23.60;28.75;101029.53;5092758;28;20036;-72
2023/10/12 12:25:44;;;;;;;3.40;1.42;;;;;;;23.53;28.68;101012.03;5092968;28;20502;-69
2023/10/12 12:28:14;;;;;;;4.82;1.70;;;;;;;23.62;32.13;101013.72;5092525;28;20063;-70
2023/10/12 12:30:55;;;;;;;5.80;1.70;;;;;;;23.65;29.93;101014.56;5092879;28;20040;-71
2023/10/12 12:33:22;;;;;;;4.50;1.50;;;;;;;23.51;29.60;100983.03;5092825;28;20036;-68
2023/10/12 12:35:54;;;;;;;5.47;1.60;;;;;;;23.74;29.92;101001.28;5092386;28;20044;-70
2023/10/12 12:41:19;;;;;;;4.82;1.52;;;;;;;23.79;29.34;100996.00;5113077;28;20489;-71
2023/10/12 12:43:47;;;;;;;6.30;2.08;;;;;;;23.58;30.38;100963.66;5112914;28;20036;-68
2023/10/12 12:46:13;;;;;;;4.57;1.63;;;;;;;23.75;30.60;100986.34;5100600;28;20512;-68
2023/10/12 12:48:38;;;;;;;5.10;1.45;;;;;;;23.71;29.01;100980.25;5108825;28;20032;-71
2023/10/12 12:51:10;;;;;;;4.88;1.60;;;;;;;23.66;29.61;100989.06;5108476;28;20134;-70
2023/10/12 12:53:35;;;;;;;3.58;1.40;;;;;;;23.56;30.89;100981.25;5111862;28;20063;-68
2023/10/12 12:56:02;;;;;;;3.92;1.63;;;;;;;23.51;31.03;100976.91;5111018;28;20063;-70
2023/10/12 12:58:28;;;;;;;4.28;1.60;;;;;;;23.44;29.23;100968.19;5111007;28;20477;-70
2023/10/12 13:00:54;;;;;;;3.75;1.50;;;;;;;23.42;29.48;100970.81;5110740;28;20024;-71
2023/10/12 13:03:20;;;;;;;4.03;1.70;;;;;;;23.40;29.19;100967.34;5112333;28;20038;-68
2023/10/12 13:06:07;;;;;;;3.25;1.35;;;;;;;23.42;29.31;100969.94;5068194;28;20115;-69
2023/10/12 13:08:53;;;;;;;4.72;1.80;;;;;;;23.30;28.89;100960.38;5016619;28;20558;-70
2023/10/12 13:11:22;;;;;;;4.22;1.60;;;;;;;23.25;30.44;100960.44;5008904;28;20042;-70
2023/10/12 13:13:48;;;;;;;3.00;1.40;;;;;;;23.16;30.22;100957.00;5009295;28;20038;-71
2023/10/12 13:16:14;;;;;;;3.78;1.83;;;;;;;23.22;29.57;100956.94;5008507;28;20107;-68
2023/10/12 13:18:46;;;;;;;19.70;3.15;;;;;;;23.21;30.84;100955.19;5008962;28;20036;-68
2023/10/12 13:21:14;;;;;;;4.88;1.50;;;;;;;23.02;30.98;100917.56;5009383;28;20085;-67
2023/10/12 13:23:41;;;;;;;7.85;1.50;;;;;;;23.02;30.92;100913.16;4977152;28;20065;-67
2023/10/12 13:26:07;;;;;;;3.88;1.55;;;;;;;23.17;30.16;100948.22;5009364;28;20046;-66
2023/10/12 13:28:33;;;;;;;11.40;1.75;;;;;;;23.13;31.40;100944.69;5008094;28;20041;-69
2023/10/12 13:30:59;;;;;;;2.95;1.58;;;;;;;23.07;31.19;100940.31;5018086;28;20561;-67
2023/10/12 13:33:27;;;;;;;3.58;1.42;;;;;;;23.02;31.02;100934.22;5012003;28;20037;-68
2023/10/12 13:35:56;;;;;;;3.85;1.48;;;;;;;23.08;31.31;100941.22;5008918;28;20061;-67
2023/10/12 13:38:22;;;;;;;4.75;2.03;;;;;;;23.02;30.32;100923.69;5039534;28;20048;-68
2023/10/12 13:40:48;;;;;;;3.30;1.40;;;;;;;22.98;29.50;100929.88;5099996;28;20043;-67
2023/10/12 13:43:14;;;;;;;3.10;1.67;;;;;;;22.88;29.67;100926.44;5092745;28;20413;-69
2023/10/12 13:45:47;;;;;;;1.42;1.23;;;;;;;22.87;30.00;100929.06;5111364;28;20031;-68
2023/10/12 13:48:25;;;;;;;3.42;1.80;;;;;;;22.88;30.74;100922.91;5108852;28;20397;-69
2023/10/12 13:51:04;;;;;;;3.35;1.65;;;;;;;22.87;30.97;100914.13;5107148;28;20070;-66
2023/10/12 13:53:41;;;;;;;2.30;1.23;;;;;;;22.85;30.57;100915.03;5109268;28;20493;-66
2023/10/12 13:56:12;;;;;;;4.22;1.77;;;;;;;22.77;31.55;100900.16;5098393;28;20517;-67
2023/10/12 13:58:44;;;;;;;2.85;1.38;;;;;;;22.87;31.01;100910.66;5097560;28;20039;-70
2023/10/12 14:01:18;;;;;;;2.67;1.30;;;;;;;22.78;29.80;100907.19;5092743;28;20122;-67
2023/10/12 14:03:55;;;;;;;3.10;1.60;;;;;;;22.77;29.90;100905.44;5107181;28;20588;-69
2023/10/12 14:06:21;;;;;;;4.90;1.65;;;;;;;22.80;30.24;100907.16;5108842;28;20039;-68
2023/10/12 14:08:47;;;;;;;2.55;1.40;;;;;;;22.73;31.73;100898.44;5110943;28;20089;-67
2023/10/12 14:11:14;;;;;;;4.95;1.65;;;;;;;22.62;31.53;100887.13;5110751;28;20059;-64
2023/10/12 14:13:40;;;;;;;4.38;1.58;;;;;;;22.64;32.17;100897.63;5111448;28;20474;-69
2023/10/12 14:16:09;;;;;;;2.47;1.40;;;;;;;22.40;31.77;100866.19;5093239;28;20119;-66
2023/10/12 14:18:35;;;;;;;2.92;1.60;;;;;;;22.63;31.01;100896.75;5111369;28;20035;-69
2023/10/12 14:21:01;;;;;;;2.97;1.48;;;;;;;22.65;30.54;100888.84;5111474;28;20032;-65
2023/10/12 14:23:26;;;;;;;3.25;1.38;;;;;;;22.66;32.10;100890.59;5111326;28;20032;-65
2023/10/12 14:25:54;;;;;;;5.35;2.03;;;;;;;22.69;30.69;100888.84;5111292;28;20427;-65
2023/10/12 14:28:20;;;;;;;7.07;1.40;;;;;;;22.55;31.19;100888.88;5075326;28;20115;-65
2023/10/12 14:30:50;;;;;;;3.63;1.80;;;;;;;22.34;30.98;100874.06;5111536;28;20038;-66
2023/10/12 14:33:18;;;;;;;5.25;1.60;;;;;;;22.40;30.88;100881.09;5110736;28;20460;-64
2023/10/12 14:35:45;;;;;;;4.35;1.70;;;;;;;22.35;30.95;100883.72;5110959;28;20035;-65
2023/10/12 14:38:17;;;;;;;15.65;2.42;;;;;;;22.38;30.39;100883.75;5109042;28;20027;-64
2023/10/12 14:40:46;;;;;;;3.30;1.60;;;;;;;22.37;30.24;100871.47;5110756;28;20393;-65
2023/10/12 14:43:15;;;;;;;13.30;2.72;;;;;;;22.37;30.09;100870.53;5109269;28;20523;-65
2023/10/12 14:45:48;;;;;;;10.15;1.80;;;;;;;22.43;30.01;100874.06;5110898;28;20576;-65
2023/10/12 14:48:16;;;;;;;5.72;1.70;;;;;;;22.49;29.69;100882.81;5110031;28;20423;-67
2023/10/12 14:50:48;;;;;;;3.15;1.40;;;;;;;22.52;29.57;100877.50;5102419;28;20111;-66